createdAt,value
2022-11-05T03:00:42.545Z,992.98
2022-11-05T03:02:21.577Z,992.95
2022-11-05T03:03:52.540Z,992.98
2022-11-05T03:08:15.652Z,992.96
2022-11-05T03:09:49.980Z,992.94
2022-11-05T03:12:14.258Z,992.97
2022-11-05T03:15:42.968Z,992.90
2022-11-05T03:21:17.333Z,993.05
2022-11-05T03:22:25.273Z,993.03
2022-11-05T03:23:22.729Z,993.01
2022-11-05T03:24:17.873Z,993.00
2022-11-05T03:25:20.266Z,993.03
2022-11-05T03:26:20.380Z,992.99
2022-11-05T03:27:19.345Z,993.02
2022-11-05T03:28:22.669Z,992.97
2022-11-05T03:29:18.414Z,992.99
2022-11-05T03:30:19.100Z,993.05
2022-11-05T03:31:18.618Z,993.06
2022-11-05T03:32:19.358Z,993.07
2022-11-05T03:33:21.921Z,993.04
2022-11-05T03:34:25.716Z,993.02
2022-11-05T03:35:43.183Z,993.09
2022-11-05T03:41:16.418Z,993.22
2022-11-05T03:42:19.675Z,993.25
2022-11-05T03:43:17.821Z,993.21
2022-11-05T03:44:51.088Z,993.26
2022-11-05T03:48:09.160Z,993.25
2022-11-05T03:52:47.819Z,993.26
2022-11-05T03:53:56.547Z,993.30
2022-11-05T03:56:12.932Z,993.18
2022-11-05T03:56:51.448Z,993.31
2022-11-05T04:03:45.743Z,993.43
2022-11-05T04:04:46.429Z,993.38
2022-11-05T04:05:46.062Z,993.38
2022-11-05T04:06:52.101Z,993.37
2022-11-05T04:14:47.635Z,993.56
2022-11-05T04:15:53.352Z,993.59
2022-11-05T04:16:50.688Z,993.60
2022-11-05T04:18:17.275Z,993.60
2022-11-05T04:18:47.750Z,993.59
2022-11-05T04:19:54.667Z,993.67
2022-11-05T04:20:48.442Z,993.67
2022-11-05T04:21:49.029Z,993.67
2022-11-05T04:22:48.643Z,993.68
2022-11-05T04:23:57.172Z,993.66
2022-11-05T04:24:51.727Z,993.75
2022-11-05T04:25:48.194Z,993.73
2022-11-05T04:26:47.593Z,993.75
2022-11-05T04:27:52.746Z,993.72
2022-11-05T04:28:51.539Z,993.71
2022-11-05T04:29:50.702Z,993.74
2022-11-05T04:30:48.194Z,993.72
2022-11-05T04:31:53.546Z,993.74
2022-11-05T04:33:06.991Z,993.70
2022-11-05T04:33:49.274Z,993.71
2022-11-05T04:34:48.086Z,993.66
2022-11-05T04:35:49.696Z,993.72
2022-11-05T04:36:47.973Z,993.72
2022-11-05T04:37:48.693Z,993.73
2022-11-05T04:38:49.866Z,993.76
2022-11-05T04:39:48.399Z,993.75
2022-11-05T04:40:48.116Z,993.72
2022-11-05T04:41:47.994Z,993.71
2022-11-05T04:42:47.989Z,993.69
2022-11-05T04:43:47.355Z,993.73
2022-11-05T04:44:47.555Z,993.75
2022-11-05T04:46:41.866Z,993.72
2022-11-05T04:48:44.875Z,993.71
2022-11-05T04:57:50.267Z,993.81
2022-11-05T04:59:04.640Z,993.83
2022-11-05T04:59:52.202Z,993.87
2022-11-05T05:00:59.064Z,993.88
2022-11-05T05:01:54.532Z,993.85
2022-11-05T05:02:55.151Z,993.90
2022-11-05T05:04:02.377Z,993.87
2022-11-05T05:05:00.523Z,993.85
2022-11-05T05:05:53.701Z,993.93
2022-11-05T05:06:52.829Z,993.95
2022-11-05T05:07:51.567Z,993.96
2022-11-05T05:08:51.684Z,993.99
2022-11-05T05:09:51.702Z,994.01
2022-11-05T05:10:53.452Z,994.07
2022-11-05T05:11:50.254Z,994.05
2022-11-05T05:12:51.087Z,994.01
2022-11-05T05:13:53.497Z,994.04
2022-11-05T05:17:26.860Z,994.08
2022-11-05T05:21:02.510Z,994.07
2022-11-05T05:22:11.479Z,994.10
2022-11-05T05:31:08.435Z,994.13
2022-11-05T05:32:14.684Z,994.15
2022-11-05T05:33:08.908Z,994.11
2022-11-05T05:37:01.044Z,994.10
2022-11-05T05:40:35.934Z,994.18
2022-11-05T05:44:05.835Z,994.23
2022-11-05T06:05:02.066Z,994.52
2022-11-05T06:06:42.453Z,994.55
2022-11-05T06:08:48.313Z,994.49
2022-11-05T06:09:23.297Z,994.58
2022-11-05T06:13:08.299Z,994.76
2022-11-05T06:13:37.147Z,994.81
2022-11-05T06:15:03.263Z,994.75
2022-11-05T06:16:42.835Z,994.80
2022-11-05T06:17:57.769Z,994.77
2022-11-05T06:20:37.785Z,994.75
2022-11-05T06:23:58.106Z,994.76
2022-11-05T06:26:25.107Z,994.78
2022-11-05T06:35:24.263Z,994.87
2022-11-05T06:36:35.432Z,994.86
2022-11-05T06:37:29.857Z,994.92
2022-11-05T06:38:36.704Z,994.83
2022-11-05T06:39:32.812Z,994.87
2022-11-05T06:41:05.747Z,994.90
2022-11-05T06:41:30.871Z,994.93
2022-11-05T06:42:30.326Z,994.97
2022-11-05T06:43:34.633Z,994.93
2022-11-05T06:44:39.299Z,995.00
2022-11-05T06:45:41.189Z,995.05
2022-11-05T06:54:02.513Z,995.26
2022-11-05T06:55:14.417Z,995.30
2022-11-05T06:56:10.981Z,995.28
2022-11-05T06:57:26.923Z,995.32
2022-11-05T07:01:14.617Z,995.36
2022-11-05T07:02:18.298Z,995.40
2022-11-05T07:03:15.167Z,995.41
2022-11-05T07:04:15.158Z,995.34
2022-11-05T07:05:20.361Z,995.32
2022-11-05T07:06:24.978Z,995.40
2022-11-05T07:07:24.977Z,995.43
2022-11-05T07:08:19.098Z,995.36
2022-11-05T07:09:21.838Z,995.43
2022-11-05T07:10:33.900Z,995.42
2022-11-05T07:11:19.679Z,995.36
2022-11-05T07:12:42.152Z,995.37
2022-11-05T07:13:23.626Z,995.35
2022-11-05T07:14:22.078Z,995.36
2022-11-05T07:16:16.754Z,995.33
2022-11-05T07:18:14.215Z,995.35
2022-11-05T07:18:33.029Z,995.37
2022-11-05T07:19:49.146Z,995.39
2022-11-05T07:20:34.587Z,995.36
2022-11-05T07:21:22.083Z,995.35
2022-11-05T07:22:22.452Z,995.41
2022-11-05T07:23:24.386Z,995.41
2022-11-05T07:24:20.639Z,995.38
2022-11-05T07:25:21.356Z,995.41
2022-11-05T07:30:20.957Z,995.51
2022-11-05T07:31:29.607Z,995.60
2022-11-05T07:37:14.698Z,995.75
2022-11-05T07:52:52.584Z,995.89
2022-11-05T08:01:35.251Z,995.91
2022-11-05T08:27:17.562Z,996.24
2022-11-05T08:41:07.702Z,996.27
2022-11-05T08:42:09.882Z,996.19
2022-11-05T08:43:09.325Z,996.19
2022-11-05T08:44:09.008Z,996.16
2022-11-05T08:45:09.231Z,996.18
2022-11-05T08:53:03.265Z,996.20
2022-11-05T08:58:40.019Z,996.31
2022-11-05T08:59:43.069Z,996.31
2022-11-05T09:00:41.485Z,996.31
2022-11-05T09:01:41.488Z,996.34
2022-11-05T09:02:41.107Z,996.31
2022-11-05T09:03:40.983Z,996.37
2022-11-05T09:19:12.139Z,996.50
2022-11-05T09:20:12.378Z,996.59
2022-11-05T09:21:12.784Z,996.54
2022-11-05T09:22:14.468Z,996.52
2022-11-05T09:23:26.101Z,996.54
2022-11-05T09:24:14.147Z,996.56
2022-11-05T09:25:50.223Z,996.51
2022-11-05T09:58:54.294Z,996.60
2022-11-05T09:59:55.961Z,996.62
2022-11-05T10:00:55.615Z,996.58
2022-11-05T10:01:55.481Z,996.59
2022-11-05T10:02:55.409Z,996.57
2022-11-05T10:03:55.377Z,996.55
2022-11-05T10:04:55.383Z,996.54
2022-11-05T10:05:55.465Z,996.53
2022-11-05T10:06:55.373Z,996.53
2022-11-05T10:07:55.384Z,996.55
2022-11-05T10:08:55.370Z,996.46
2022-11-05T10:09:55.357Z,996.55
2022-11-05T10:10:55.344Z,996.57
2022-11-05T10:11:55.321Z,996.59
2022-11-05T10:12:55.406Z,996.54
2022-11-05T10:13:55.309Z,996.53
2022-11-05T10:14:55.230Z,996.58
2022-11-05T10:15:55.271Z,996.61
2022-11-05T10:16:55.344Z,996.59
2022-11-05T10:17:55.188Z,996.56
2022-11-05T10:18:55.160Z,996.61
2022-11-05T10:19:55.256Z,996.59
2022-11-05T10:20:55.299Z,996.61
2022-11-05T10:22:10.436Z,996.62
2022-11-05T10:22:57.177Z,996.61
2022-11-05T10:23:55.110Z,996.60
2022-11-05T10:24:55.111Z,996.65
2022-11-05T10:25:55.059Z,996.65
2022-11-05T10:26:55.131Z,996.62
2022-11-05T10:27:55.214Z,996.63
2022-11-05T10:28:55.045Z,996.66
2022-11-05T10:29:55.139Z,996.62
2022-11-05T10:30:55.110Z,996.64
2022-11-05T10:31:55.091Z,996.66
2022-11-05T10:32:56.066Z,996.70
2022-11-05T10:33:55.080Z,996.64
2022-11-05T10:34:55.025Z,996.68
2022-11-05T10:35:54.992Z,996.67
2022-11-05T10:36:54.986Z,996.72
2022-11-05T10:37:55.101Z,996.72
2022-11-05T10:38:54.968Z,996.73
2022-11-05T10:39:54.995Z,996.75
2022-11-05T10:40:54.921Z,996.77
2022-11-05T10:41:55.139Z,996.80
2022-11-05T10:42:55.064Z,996.75
2022-11-05T10:43:54.957Z,996.74
2022-11-05T10:44:54.966Z,996.71
2022-11-05T10:45:55.285Z,996.73
2022-11-05T10:46:54.927Z,996.67
2022-11-05T10:47:54.977Z,996.66
2022-11-05T10:48:54.880Z,996.73
2022-11-05T10:49:54.860Z,996.74
2022-11-05T10:50:54.923Z,996.68
2022-11-05T10:51:54.880Z,996.72
2022-11-05T10:52:54.874Z,996.73
2022-11-05T10:53:58.850Z,996.72
2022-11-05T10:54:56.808Z,996.76
2022-11-05T10:55:54.848Z,996.74
